Time;durP1;ratioP1;P1;durP2;ratioP2;P2;SDS_P1;SDS_P2;PMS_P1;PMS_P2;Temp;Humidity;BMP_temperature;BMP_pressure;BME280_temperature;BME280_humidity;BME280_pressure;Samples;Min_cycle;Max_cycle;Signal;HPM_P1;HPM_P2
2021/12/08 00:01:02;;;;;;;2.50;2.40;;;;;;;3.88;94.07;98297.72;5111885;28;20281;-60
2021/12/08 00:03:30;;;;;;;2.73;2.53;;;;;;;3.86;94.68;98309.53;5111789;28;20338;-60
2021/12/08 00:05:58;;;;;;;2.70;2.50;;;;;;;3.87;94.15;98311.25;5111871;28;20302;-60
2021/12/08 00:08:28;;;;;;;3.00;2.63;;;;;;;3.83;94.78;98316.22;5111425;28;20196;-60
2021/12/08 00:13:41;;;;;;;3.00;2.70;;;;;;;3.79;94.45;98325.44;5111293;28;20380;-60
2021/12/08 00:16:12;;;;;;;2.53;2.33;;;;;;;3.84;94.85;98323.03;5110934;28;20197;-59
2021/12/08 00:18:45;;;;;;;2.60;2.40;;;;;;;3.81;94.62;98318.72;5109970;28;20190;-60
2021/12/08 00:21:13;;;;;;;3.07;2.87;;;;;;;3.82;94.83;98330.59;5070753;28;20265;-60
2021/12/08 00:23:40;;;;;;;2.60;2.40;;;;;;;3.88;95.07;98333.28;5070663;28;20199;-61
2021/12/08 00:26:07;;;;;;;3.00;2.70;;;;;;;3.86;94.71;98327.31;5070980;28;20222;-59
2021/12/08 00:28:34;;;;;;;2.80;2.60;;;;;;;3.87;94.37;98339.22;5071646;28;20192;-60
2021/12/08 00:31:05;;;;;;;4.30;2.60;;;;;;;3.82;94.14;98334.84;5071680;28;20227;-60
2021/12/08 00:33:32;;;;;;;3.33;3.03;;;;;;;3.84;94.21;98335.72;5071495;28;20577;-60
2021/12/08 00:36:09;;;;;;;2.53;2.30;;;;;;;3.69;94.82;98315.03;5071537;28;20214;-59
2021/12/08 00:38:36;;;;;;;2.47;2.27;;;;;;;3.92;95.33;98340.16;5071381;28;20624;-60
2021/12/08 00:41:03;;;;;;;2.60;2.40;;;;;;;3.92;94.55;98339.31;5071027;28;20188;-61
2021/12/08 00:43:30;;;;;;;2.60;2.40;;;;;;;3.88;94.47;98340.91;5087563;28;20564;-61
2021/12/08 00:45:57;;;;;;;2.60;2.40;;;;;;;3.90;94.40;98349.41;5091567;28;20226;-61
2021/12/08 00:48:25;;;;;;;2.93;2.73;;;;;;;3.91;94.33;98346.06;5091774;28;20202;-60
2021/12/08 00:50:53;;;;;;;2.70;2.50;;;;;;;3.91;94.84;98362.97;5111440;28;20588;-60
2021/12/08 00:53:21;;;;;;;2.60;2.40;;;;;;;3.94;95.21;98361.38;5111503;28;20692;-60
2021/12/08 00:55:48;;;;;;;2.50;2.30;;;;;;;3.94;94.96;98361.38;5111672;28;20198;-60
2021/12/08 00:58:15;;;;;;;3.23;2.40;;;;;;;3.93;93.74;98364.72;5111567;28;20641;-60
2021/12/08 01:00:45;;;;;;;2.60;2.40;;;;;;;3.90;94.01;98359.56;5111322;28;20652;-60
2021/12/08 01:03:13;;;;;;;2.40;2.30;;;;;;;3.92;94.40;98357.94;5111411;28;20285;-60
2021/12/08 01:05:45;;;;;;;3.80;3.20;;;;;;;3.93;94.71;98362.19;5111632;28;20969;-60
2021/12/08 01:08:12;;;;;;;3.10;2.80;;;;;;;4.00;94.59;98361.53;5111011;28;20433;-60
2021/12/08 01:10:40;;;;;;;2.83;2.63;;;;;;;4.01;93.87;98357.31;5111292;28;20732;-60
2021/12/08 01:13:10;;;;;;;2.50;2.30;;;;;;;3.97;93.23;98348.75;5101521;28;20202;-61
2021/12/08 01:15:39;;;;;;;2.60;2.40;;;;;;;4.02;94.03;98353.94;5091045;28;20277;-60
2021/12/08 01:18:06;;;;;;;2.47;2.17;;;;;;;4.02;93.41;98344.63;5090893;28;20202;-60
2021/12/08 01:20:33;;;;;;;2.67;2.47;;;;;;;4.01;93.53;98352.22;5090860;28;20640;-59
2021/12/08 01:23:02;;;;;;;2.57;2.37;;;;;;;4.06;93.34;98355.72;5090741;28;20278;-59
2021/12/08 01:25:29;;;;;;;2.60;2.40;;;;;;;4.05;92.94;98354.88;5090474;28;20203;-59
2021/12/08 01:27:56;;;;;;;2.47;2.27;;;;;;;4.10;93.31;98355.81;5090985;28;20172;-60
2021/12/08 01:30:23;;;;;;;2.50;2.30;;;;;;;4.05;92.88;98341.31;5098900;28;20234;-59
2021/12/08 01:32:52;;;;;;;2.30;2.10;;;;;;;4.06;93.22;98361.69;5111173;28;20214;-60
2021/12/08 01:35:19;;;;;;;2.37;2.20;;;;;;;4.06;93.36;98356.59;5103015;28;20212;-60
2021/12/08 01:37:46;;;;;;;2.20;2.10;;;;;;;4.11;92.77;98354.16;5090425;28;20753;-61
2021/12/08 01:40:16;;;;;;;2.37;2.20;;;;;;;4.04;92.49;98334.50;5090679;28;20209;-61
2021/12/08 01:42:47;;;;;;;2.87;2.60;;;;;;;4.15;92.44;98359.31;5090337;28;20253;-61
2021/12/08 01:48:02;;;;;;;2.27;2.10;;;;;;;4.16;92.42;98363.59;5090693;28;20266;-60
2021/12/08 01:50:30;;;;;;;2.63;2.10;;;;;;;4.16;91.82;98355.13;5090283;28;20277;-60
2021/12/08 01:52:57;;;;;;;3.50;2.37;;;;;;;4.15;92.87;98372.03;5090054;28;20194;-61
2021/12/08 01:55:26;;;;;;;2.60;2.40;;;;;;;4.20;92.34;98367.09;5090594;28;20684;-61
2021/12/08 01:57:53;;;;;;;2.70;2.43;;;;;;;4.20;92.03;98371.31;5090458;28;20309;-60
2021/12/08 02:00:25;;;;;;;2.67;2.20;;;;;;;4.20;92.37;98374.72;5090524;28;20605;-61
2021/12/08 02:02:51;;;;;;;2.43;2.20;;;;;;;4.23;92.00;98379.00;5090294;28;20271;-61
2021/12/08 02:05:18;;;;;;;2.60;2.40;;;;;;;4.27;92.82;98381.63;5090324;28;20187;-61
2021/12/08 02:07:45;;;;;;;2.30;2.20;;;;;;;4.23;92.32;98373.91;5090419;28;20313;-61
2021/12/08 02:10:14;;;;;;;2.37;2.13;;;;;;;4.26;91.68;98381.63;5090226;28;20202;-61
2021/12/08 02:12:42;;;;;;;2.53;2.07;;;;;;;4.30;91.96;98386.78;5090532;28;20195;-60
2021/12/08 02:15:13;;;;;;;2.73;2.50;;;;;;;4.35;92.13;98381.81;5090087;28;20290;-61
2021/12/08 02:17:40;;;;;;;2.40;2.30;;;;;;;4.31;91.60;98391.06;5090679;28;20191;-61
2021/12/08 02:20:10;;;;;;;2.80;2.57;;;;;;;4.34;90.58;98396.19;5090353;28;20187;-61
2021/12/08 02:22:39;;;;;;;2.50;2.30;;;;;;;4.33;91.24;98396.16;5070072;28;20202;-61
2021/12/08 02:25:07;;;;;;;2.60;2.40;;;;;;;4.35;90.34;98390.28;5070032;28;20179;-60
2021/12/08 02:27:34;;;;;;;2.43;2.23;;;;;;;4.35;90.54;98392.84;5075627;28;20219;-61
2021/12/08 02:30:11;;;;;;;2.50;2.30;;;;;;;4.44;90.04;98387.09;5070534;28;20446;-59
2021/12/08 02:46:45;;;;;;;2.13;2.03;;;;;;;4.51;86.65;98405.06;5089988;28;20565;-60
2021/12/08 02:49:13;;;;;;;2.77;2.50;;;;;;;4.55;87.15;98409.41;5090036;28;20184;-61
2021/12/08 02:51:40;;;;;;;2.50;2.30;;;;;;;4.62;87.26;98425.66;5089859;28;20191;-60
2021/12/08 02:54:08;;;;;;;3.83;3.00;;;;;;;4.54;86.60;98422.06;5089898;28;20191;-60
2021/12/08 02:56:35;;;;;;;2.50;2.30;;;;;;;4.53;86.35;98422.91;5089931;28;20676;-60
2021/12/08 02:59:05;;;;;;;2.67;2.47;;;;;;;4.60;85.79;98420.53;5090059;28;20191;-60
2021/12/08 03:01:32;;;;;;;2.83;2.63;;;;;;;4.61;85.63;98423.94;5090256;28;20301;-60
2021/12/08 03:03:59;;;;;;;2.57;2.37;;;;;;;4.59;85.62;98435.75;5090175;28;20674;-60
2021/12/08 03:06:26;;;;;;;2.37;2.17;;;;;;;4.73;86.16;98434.38;5093369;28;20219;-61
2021/12/08 03:08:53;;;;;;;2.50;2.30;;;;;;;4.36;84.32;98388.63;5093302;28;20194;-61
2021/12/08 03:11:21;;;;;;;2.10;2.00;;;;;;;4.67;84.42;98436.78;5093375;28;20542;-61
2021/12/08 03:14:01;;;;;;;2.70;2.27;;;;;;;4.68;83.49;98452.09;5093448;28;20273;-61
2021/12/08 03:16:28;;;;;;;2.50;2.30;;;;;;;4.70;82.73;98452.97;5093327;28;20269;-60
2021/12/08 03:18:55;;;;;;;2.20;2.10;;;;;;;4.66;84.56;98460.50;5093171;28;20222;-61
2021/12/08 03:21:28;;;;;;;2.33;2.20;;;;;;;4.69;83.05;98458.91;5093168;28;20198;-60
2021/12/08 03:24:07;;;;;;;2.50;2.30;;;;;;;4.71;83.13;98451.28;5093124;28;21026;-60
2021/12/08 03:26:43;;;;;;;2.37;2.17;;;;;;;4.70;84.16;98457.19;5092897;28;20313;-60
2021/12/08 03:29:20;;;;;;;2.70;2.50;;;;;;;4.70;83.02;98462.28;5093109;28;20199;-61
2021/12/08 03:31:50;;;;;;;2.27;2.07;;;;;;;4.72;83.77;98466.56;5052663;28;20196;-60
2021/12/08 03:34:19;;;;;;;2.50;2.30;;;;;;;4.69;84.24;98468.22;5052500;28;20192;-60
2021/12/08 03:36:47;;;;;;;3.20;2.80;;;;;;;4.74;84.93;98475.13;5052727;28;20622;-60
2021/12/08 03:39:14;;;;;;;3.30;2.60;;;;;;;4.73;83.82;98477.63;5052459;28;20544;-60
2021/12/08 03:41:42;;;;;;;3.20;2.67;;;;;;;4.74;83.71;98479.34;5052393;28;20204;-60
2021/12/08 03:44:09;;;;;;;3.33;2.70;;;;;;;4.82;84.23;98476.97;5052608;28;20197;-61
2021/12/08 03:46:40;;;;;;;2.50;2.30;;;;;;;4.73;83.29;98481.03;5052139;28;20212;-61
2021/12/08 03:49:11;;;;;;;3.07;2.77;;;;;;;4.54;83.04;98442.41;5052550;28;20967;-60
2021/12/08 03:51:38;;;;;;;3.37;3.07;;;;;;;4.78;83.55;98484.53;5051354;28;20428;-60
2021/12/08 03:54:05;;;;;;;3.00;2.70;;;;;;;4.89;82.72;98474.59;5052379;28;20504;-60
2021/12/08 03:56:32;;;;;;;2.80;2.60;;;;;;;4.87;81.76;98499.16;5052160;28;20195;-60
2021/12/08 03:59:01;;;;;;;2.70;2.50;;;;;;;4.79;81.52;98493.03;5051989;28;20193;-60
2021/12/08 04:01:28;;;;;;;2.93;2.73;;;;;;;4.76;80.57;98492.97;5051900;28;20777;-60
2021/12/08 04:04:00;;;;;;;2.90;2.70;;;;;;;4.82;80.87;98500.75;5051890;28;20178;-61
2021/12/08 04:06:31;;;;;;;3.33;3.03;;;;;;;4.80;81.00;98496.44;5052270;28;20209;-61
2021/12/08 04:09:02;;;;;;;3.70;3.20;;;;;;;4.67;79.67;98465.63;5052117;28;20223;-60
2021/12/08 04:11:30;;;;;;;4.00;3.60;;;;;;;4.84;79.07;98504.16;5051829;28;20188;-61
2021/12/08 04:14:02;;;;;;;3.50;3.20;;;;;;;4.88;78.99;98508.53;5051790;28;20188;-61
2021/12/08 04:16:35;;;;;;;4.60;3.60;;;;;;;4.93;79.81;98508.59;5051583;28;20188;-60
2021/12/08 04:19:03;;;;;;;3.33;3.00;;;;;;;4.91;78.93;98505.19;5051934;28;20334;-61
2021/12/08 04:21:31;;;;;;;3.23;2.97;;;;;;;4.91;78.41;98510.28;5051684;28;20287;-60
2021/12/08 04:23:58;;;;;;;3.37;3.07;;;;;;;4.92;78.68;98511.97;5051675;28;20200;-60
2021/12/08 04:26:31;;;;;;;3.90;3.10;;;;;;;4.98;78.50;98507.88;5051280;28;20188;-60
2021/12/08 04:28:58;;;;;;;3.77;3.40;;;;;;;4.97;77.42;98510.41;5051448;28;20278;-60
2021/12/08 04:31:32;;;;;;;4.37;3.60;;;;;;;5.02;77.29;98509.69;5087606;28;20701;-60
2021/12/08 04:34:03;;;;;;;5.00;3.90;;;;;;;5.04;78.15;98504.63;5091573;28;20284;-61
2021/12/08 04:36:37;;;;;;;4.87;3.70;;;;;;;5.06;76.75;98508.91;5091452;28;20195;-61
2021/12/08 04:39:09;;;;;;;3.10;2.90;;;;;;;5.09;77.40;98511.53;5091433;28;20205;-61
2021/12/08 04:41:41;;;;;;;3.97;3.63;;;;;;;5.10;77.04;98528.53;5091529;28;20257;-60
2021/12/08 04:44:21;;;;;;;4.30;3.60;;;;;;;5.07;75.85;98523.38;5091589;28;20191;-61
2021/12/08 04:47:16;;;;;;;4.03;3.70;;;;;;;5.13;76.95;98517.56;5091194;28;20218;-61
2021/12/08 04:50:16;;;;;;;4.20;3.57;;;;;;;5.20;76.54;98532.13;5091564;28;20198;-60
2021/12/08 04:52:52;;;;;;;3.57;3.27;;;;;;;5.21;76.52;98531.31;5091108;28;20191;-60
2021/12/08 05:06:44;;;;;;;4.73;3.73;;;;;;;5.20;76.20;98570.31;5090902;28;20673;-60
2021/12/08 05:09:15;;;;;;;4.47;4.07;;;;;;;4.92;75.75;98519.59;5091314;28;20616;-60
2021/12/08 05:11:44;;;;;;;4.40;3.77;;;;;;;5.16;76.92;98561.78;5091165;28;20203;-61
2021/12/08 05:14:15;;;;;;;5.00;4.50;;;;;;;5.22;76.13;98566.09;5089701;28;20440;-60
2021/12/08 05:16:44;;;;;;;4.90;4.17;;;;;;;5.25;76.62;98564.50;5090707;28;20195;-61
2021/12/08 05:19:16;;;;;;;4.37;3.97;;;;;;;5.27;76.53;98570.47;5090778;28;20551;-60
2021/12/08 05:21:46;;;;;;;3.97;3.67;;;;;;;5.29;75.91;98571.38;5090870;28;20227;-60
2021/12/08 05:24:17;;;;;;;5.07;4.40;;;;;;;5.25;75.88;98572.13;5090488;28;20187;-60
2021/12/08 05:26:50;;;;;;;5.30;4.77;;;;;;;5.26;76.07;98581.50;5089898;28;20290;-60
2021/12/08 05:29:19;;;;;;;4.77;4.27;;;;;;;5.25;75.82;98573.81;5090772;28;20187;-59
2021/12/08 05:31:47;;;;;;;5.43;4.73;;;;;;;5.18;76.25;98571.97;5090385;28;20187;-60
2021/12/08 05:34:16;;;;;;;5.27;4.67;;;;;;;5.23;76.26;98575.47;5090164;28;20218;-61
2021/12/08 05:36:43;;;;;;;4.63;4.23;;;;;;;5.25;75.52;98576.38;5090499;28;20202;-60
2021/12/08 05:39:20;;;;;;;5.60;4.73;;;;;;;5.24;76.06;98585.72;5090559;28;20190;-60
2021/12/08 05:41:49;;;;;;;5.27;4.43;;;;;;;5.27;75.79;98592.56;5090917;28;20198;-60
2021/12/08 05:44:17;;;;;;;4.87;4.10;;;;;;;5.27;75.94;98595.09;5090889;28;20316;-60
2021/12/08 05:46:48;;;;;;;5.43;4.93;;;;;;;5.26;75.58;98591.69;5090416;28;21022;-60
2021/12/08 05:49:18;;;;;;;5.47;4.60;;;;;;;5.31;75.60;98597.75;5106573;28;20230;-60
2021/12/08 05:51:47;;;;;;;6.83;4.77;;;;;;;5.26;75.89;98591.69;5111023;28;20236;-61
2021/12/08 05:54:17;;;;;;;5.27;4.67;;;;;;;5.25;75.84;98605.25;5110691;28;20280;-60
2021/12/08 05:56:45;;;;;;;5.13;4.63;;;;;;;5.34;74.60;98596.94;5110800;28;20542;-60
2021/12/08 05:59:15;;;;;;;5.33;4.80;;;;;;;5.29;75.28;98604.50;5110449;28;20197;-59
2021/12/08 06:01:46;;;;;;;5.43;4.90;;;;;;;5.31;75.18;98610.47;5110734;28;20195;-60
2021/12/08 06:04:15;;;;;;;5.40;4.83;;;;;;;5.29;75.25;98609.59;5110720;28;20313;-59
2021/12/08 06:06:45;;;;;;;5.87;5.27;;;;;;;5.09;75.79;98580.25;5110609;28;20202;-60
2021/12/08 06:09:13;;;;;;;5.07;4.57;;;;;;;5.20;75.37;98609.38;5110230;28;20269;-61
2021/12/08 06:11:41;;;;;;;5.30;4.80;;;;;;;5.22;75.48;98614.47;5091047;28;20638;-60
2021/12/08 06:14:08;;;;;;;7.27;5.20;;;;;;;5.26;75.02;98627.34;5089708;28;20277;-60
2021/12/08 06:16:38;;;;;;;6.93;5.07;;;;;;;5.31;74.94;98635.94;5089586;28;20216;-59
2021/12/08 06:19:07;;;;;;;5.60;5.03;;;;;;;5.32;75.11;98631.72;5089808;28;20190;-61
2021/12/08 06:21:35;;;;;;;6.23;5.37;;;;;;;5.15;75.63;98643.19;5089880;28;20190;-61
2021/12/08 06:24:08;;;;;;;8.03;6.20;;;;;;;5.19;75.51;98653.47;5089953;28;20197;-60
2021/12/08 06:26:35;;;;;;;8.07;5.60;;;;;;;5.26;75.64;98657.03;5089463;28;20201;-61
2021/12/08 06:29:06;;;;;;;6.67;4.90;;;;;;;5.30;74.59;98662.22;5089833;28;20219;-60
2021/12/08 06:31:37;;;;;;;7.55;6.75;;;;;;;5.38;75.37;98653.91;5089011;28;20527;-61
2021/12/08 06:34:05;;;;;;;6.73;6.03;;;;;;;5.46;74.40;98666.00;5090135;28;20278;-60
2021/12/08 06:36:36;;;;;;;6.83;5.77;;;;;;;5.48;74.97;98656.69;5089778;28;20282;-60
2021/12/08 06:39:07;;;;;;;6.43;5.77;;;;;;;5.50;74.52;98659.28;5091656;28;20198;-61
2021/12/08 06:41:38;;;;;;;8.13;6.50;;;;;;;5.53;74.74;98667.84;5093304;28;20197;-61
2021/12/08 06:44:09;;;;;;;7.17;5.73;;;;;;;5.26;74.54;98606.09;5092812;28;20189;-61
2021/12/08 06:46:36;;;;;;;7.70;6.90;;;;;;;5.66;74.27;98684.28;5096393;28;20282;-60
2021/12/08 06:49:06;;;;;;;7.17;6.47;;;;;;;5.59;74.40;98684.97;5090833;28;20382;-60
2021/12/08 06:51:37;;;;;;;8.27;7.43;;;;;;;5.61;73.95;98680.75;5080856;28;20187;-60
2021/12/08 06:54:10;;;;;;;12.90;8.20;;;;;;;5.58;74.25;98680.69;5072888;28;20203;-61
2021/12/08 06:56:40;;;;;;;10.63;7.53;;;;;;;5.58;73.87;98681.53;5073175;28;20619;-61
2021/12/08 06:59:10;;;;;;;10.03;8.23;;;;;;;5.64;73.90;98693.56;5072361;28;20203;-60
2021/12/08 07:01:45;;;;;;;11.53;8.07;;;;;;;5.69;73.68;98694.53;5072727;28;20315;-61
2021/12/08 07:04:29;;;;;;;11.73;9.07;;;;;;;5.74;72.53;98701.44;5072795;28;20253;-61
2021/12/08 07:07:01;;;;;;;13.97;9.90;;;;;;;5.74;72.62;98693.81;5071347;28;20187;-62
2021/12/08 07:09:35;;;;;;;10.30;8.37;;;;;;;5.73;72.68;98691.22;5071733;28;20242;-61
2021/12/08 07:12:07;;;;;;;12.93;9.30;;;;;;;5.82;72.22;98699.09;5071242;28;20278;-61
2021/12/08 07:14:35;;;;;;;13.40;10.80;;;;;;;5.85;72.67;98706.84;5071388;28;20953;-61
2021/12/08 07:17:06;;;;;;;15.17;10.87;;;;;;;5.84;72.07;98695.75;5071582;28;20202;-62
2021/12/08 07:19:44;;;;;;;13.93;10.60;;;;;;;5.84;72.38;98699.97;5071914;28;20578;-61
2021/12/08 07:22:14;;;;;;;14.43;10.27;;;;;;;5.88;72.02;98706.88;5072315;28;20201;-61
2021/12/08 07:24:45;;;;;;;12.17;9.80;;;;;;;5.90;72.22;98708.66;5072724;28;20283;-61
2021/12/08 07:27:17;;;;;;;14.63;10.90;;;;;;;6.01;72.34;98708.03;5072562;28;20196;-61
2021/12/08 07:29:46;;;;;;;14.60;10.80;;;;;;;6.00;72.00;98714.81;5072249;28;20237;-61
2021/12/08 07:32:17;;;;;;;16.37;11.17;;;;;;;6.04;72.37;98708.97;5072177;28;20623;-61
2021/12/08 07:34:45;;;;;;;13.27;10.23;;;;;;;6.13;72.50;98711.69;5072472;28;20580;-61
2021/12/08 07:37:16;;;;;;;14.07;11.07;;;;;;;6.18;72.77;98712.63;5072735;28;20200;-61
2021/12/08 07:39:49;;;;;;;15.63;11.90;;;;;;;6.12;72.21;98717.63;5072285;28;20195;-60
2021/12/08 07:42:20;;;;;;;14.53;11.70;;;;;;;6.12;71.88;98726.97;5071866;28;20196;-61
2021/12/08 07:44:51;;;;;;;15.00;11.90;;;;;;;6.09;71.81;98722.66;5072404;28;20192;-61
2021/12/08 07:47:20;;;;;;;16.00;11.83;;;;;;;6.13;71.23;98728.66;5072171;28;20199;-60
2021/12/08 07:49:50;;;;;;;16.13;11.80;;;;;;;6.13;71.33;98718.47;5071344;28;20605;-61
2021/12/08 07:52:22;;;;;;;17.27;12.88;;;;;;;6.23;71.38;98723.81;5071887;28;20433;-61
2021/12/08 07:54:51;;;;;;;20.47;12.73;;;;;;;6.29;72.24;98728.19;5071949;28;20196;-61
2021/12/08 07:57:22;;;;;;;16.63;12.33;;;;;;;6.36;70.35;98737.66;5071756;28;20226;-61
2021/12/08 07:59:52;;;;;;;16.43;10.90;;;;;;;6.36;70.91;98737.66;5071740;28;20283;-60
2021/12/08 08:02:19;;;;;;;14.07;11.90;;;;;;;6.30;71.02;98728.19;5071933;28;20194;-61
2021/12/08 08:04:49;;;;;;;14.43;11.33;;;;;;;6.29;71.09;98726.47;5084772;28;20197;-61
2021/12/08 08:07:17;;;;;;;14.97;11.33;;;;;;;6.31;70.22;98729.94;5102960;28;20225;-60
2021/12/08 08:09:47;;;;;;;16.80;12.37;;;;;;;6.28;70.71;98734.97;5112139;28;20317;-60
2021/12/08 08:12:22;;;;;;;18.47;12.80;;;;;;;6.24;70.68;98739.94;5112132;28;20262;-59
2021/12/08 08:14:56;;;;;;;17.75;14.32;;;;;;;6.18;70.57;98739.84;5111611;28;20508;-61
2021/12/08 08:17:31;;;;;;;15.73;12.33;;;;;;;6.23;70.73;98731.47;5112139;28;20228;-60
2021/12/08 08:19:59;;;;;;;21.20;13.97;;;;;;;6.29;71.38;98741.78;5112367;28;20194;-60
2021/12/08 08:22:29;;;;;;;15.17;12.00;;;;;;;6.27;70.99;98740.03;5112113;28;20186;-61
2021/12/08 08:24:59;;;;;;;17.67;13.27;;;;;;;6.41;71.52;98749.69;5111865;28;20226;-61
2021/12/08 08:27:28;;;;;;;19.27;12.63;;;;;;;6.35;70.96;98757.22;5111964;28;20190;-60
2021/12/08 08:29:56;;;;;;;17.00;12.57;;;;;;;6.36;71.42;98748.75;5111435;28;20730;-55
2021/12/08 08:32:29;;;;;;;18.60;13.13;;;;;;;6.46;71.33;98754.88;5111501;28;20282;-55
2021/12/08 08:35:04;;;;;;;17.60;13.57;;;;;;;6.53;71.56;98747.41;5111385;28;20190;-55
2021/12/08 08:37:31;;;;;;;20.80;13.67;;;;;;;6.32;71.63;98720.56;5112011;28;20194;-56
2021/12/08 08:40:02;;;;;;;18.73;14.43;;;;;;;6.57;71.58;98740.63;5111658;28;20234;-56
2021/12/08 08:42:33;;;;;;;19.87;13.77;;;;;;;6.51;71.04;98755.81;5109344;28;20674;-56
2021/12/08 08:45:05;;;;;;;20.07;13.60;;;;;;;6.60;71.84;98750.03;5109418;28;20193;-57
2021/12/08 08:47:34;;;;;;;18.43;13.90;;;;;;;6.66;71.44;98738.28;5109541;28;20665;-56
2021/12/08 08:50:02;;;;;;;19.17;13.73;;;;;;;6.65;71.09;98759.50;5109435;28;20279;-56
2021/12/08 08:52:33;;;;;;;20.30;14.10;;;;;;;6.72;71.41;98752.84;5109588;28;20270;-57
2021/12/08 08:55:09;;;;;;;20.07;15.07;;;;;;;6.68;71.84;98748.50;5109143;28;20190;-57
2021/12/08 08:57:39;;;;;;;20.23;13.20;;;;;;;6.80;71.43;98753.84;5111045;28;20282;-56
2021/12/08 09:00:13;;;;;;;20.10;14.43;;;;;;;6.85;71.08;98760.78;5110992;28;20219;-57
2021/12/08 09:02:40;;;;;;;21.83;13.80;;;;;;;6.96;70.77;98748.19;5111071;28;20201;-57
2021/12/08 09:05:11;;;;;;;17.93;14.00;;;;;;;6.90;70.45;98745.53;5110913;28;20550;-56
2021/12/08 09:07:42;;;;;;;18.43;13.97;;;;;;;6.87;71.05;98743.78;5111057;28;20314;-56
2021/12/08 09:10:15;;;;;;;24.10;16.93;;;;;;;6.84;71.60;98743.72;5110899;28;20194;-56
2021/12/08 09:12:47;;;;;;;22.67;14.77;;;;;;;6.84;70.73;98745.44;5110797;28;20196;-56
2021/12/08 09:15:18;;;;;;;24.73;14.30;;;;;;;6.64;71.49;98736.53;5111074;28;20201;-56
2021/12/08 09:17:50;;;;;;;20.50;14.90;;;;;;;6.68;72.20;98738.28;5110710;28;20191;-56
2021/12/08 09:20:24;;;;;;;17.03;12.33;;;;;;;6.55;71.07;98734.66;5110624;28;20277;-56
2021/12/08 09:22:57;;;;;;;21.70;14.50;;;;;;;6.53;71.76;98737.19;5110530;28;20251;-56
2021/12/08 09:25:30;;;;;;;20.87;13.67;;;;;;;6.47;71.83;98733.66;5110452;28;20190;-56
2021/12/08 09:28:03;;;;;;;20.00;13.93;;;;;;;6.45;71.83;98743.84;5110586;28;20277;-56
2021/12/08 09:30:37;;;;;;;21.07;13.77;;;;;;;6.34;71.40;98740.22;5109848;28;20662;-56
2021/12/08 09:33:08;;;;;;;19.27;13.47;;;;;;;6.35;72.55;98736.81;5092510;28;20202;-56
2021/12/08 09:35:38;;;;;;;18.00;13.60;;;;;;;6.32;71.78;98740.97;5107472;28;20614;-57
2021/12/08 09:38:13;;;;;;;24.10;14.17;;;;;;;6.35;72.84;98730.84;5110691;28;20198;-57
2021/12/08 09:40:47;;;;;;;19.53;13.63;;;;;;;6.33;72.45;98722.28;5096829;28;20202;-56
2021/12/08 09:43:20;;;;;;;22.80;15.07;;;;;;;6.28;72.30;98712.00;5094535;28;20207;-57
2021/12/08 09:45:50;;;;;;;24.10;15.63;;;;;;;6.34;72.95;98709.59;5069636;28;20200;-56
2021/12/08 09:48:17;;;;;;;18.93;13.70;;;;;;;6.50;73.21;98723.50;5069715;28;20213;-57
2021/12/08 09:50:45;;;;;;;24.43;16.20;;;;;;;6.57;72.96;98720.22;5069648;28;20284;-57
2021/12/08 09:53:14;;;;;;;19.47;14.17;;;;;;;6.60;71.66;98710.09;5074527;28;20194;-57
2021/12/08 09:55:41;;;;;;;21.97;15.27;;;;;;;6.73;72.32;98713.75;5094298;28;20200;-56
2021/12/08 09:58:10;;;;;;;18.47;14.13;;;;;;;6.90;72.57;98718.31;5090126;28;20200;-56
2021/12/08 10:00:42;;;;;;;20.63;15.67;;;;;;;7.06;72.26;98717.75;5089456;28;20194;-57
2021/12/08 10:03:09;;;;;;;20.57;15.10;;;;;;;7.09;71.56;98722.03;5089958;28;20258;-57
2021/12/08 10:05:40;;;;;;;18.17;13.67;;;;;;;7.03;70.33;98725.34;5089830;28;20285;-57
2021/12/08 10:08:08;;;;;;;21.40;15.00;;;;;;;7.16;70.27;98725.56;5089331;28;20196;-57
2021/12/08 10:10:37;;;;;;;21.17;14.27;;;;;;;7.31;70.44;98725.81;5089835;28;20190;-57
2021/12/08 10:13:05;;;;;;;18.60;14.03;;;;;;;7.46;69.93;98726.09;5089941;28;20199;-57
2021/12/08 10:15:32;;;;;;;21.67;14.17;;;;;;;7.29;68.92;98695.16;5093595;28;20982;-57
2021/12/08 10:18:01;;;;;;;21.97;13.67;;;;;;;7.61;68.35;98716.94;5094136;28;20194;-57
2021/12/08 10:20:30;;;;;;;19.63;12.67;;;;;;;7.71;67.74;98715.41;5093939;28;20198;-57
2021/12/08 10:23:20;;;;;;;16.70;12.17;;;;;;;7.77;67.04;98717.19;5093556;28;20234;-57
2021/12/08 10:25:50;;;;;;;16.77;12.17;;;;;;;7.87;66.95;98709.69;5093482;28;20191;-56
2021/12/08 10:28:19;;;;;;;20.23;14.07;;;;;;;7.97;66.91;98715.75;5093614;28;20278;-57
2021/12/08 10:30:49;;;;;;;17.20;12.03;;;;;;;8.04;66.62;98727.81;5093530;28;20316;-57
2021/12/08 10:33:53;;;;;;;16.63;12.60;;;;;;;8.09;66.76;98710.81;5093562;28;20198;-58
2021/12/08 10:39:10;;;;;;;20.40;13.20;;;;;;;8.32;66.09;98716.28;5093459;28;20189;-56
2021/12/08 10:42:02;;;;;;;17.70;13.07;;;;;;;8.43;65.61;98719.84;5092915;28;20201;-57
2021/12/08 10:44:36;;;;;;;16.33;12.47;;;;;;;8.29;64.83;98717.09;5093451;28;20215;-57
2021/12/08 10:47:04;;;;;;;14.93;11.60;;;;;;;8.25;64.40;98715.31;5093111;28;20193;-57
2021/12/08 10:55:15;;;;;;;13.77;10.50;;;;;;;8.42;63.57;98730.91;5093112;28;20739;-57
2021/12/08 10:57:42;;;;;;;16.83;11.63;;;;;;;8.29;64.12;98714.53;5092965;28;20196;-57
2021/12/08 11:00:12;;;;;;;15.07;11.13;;;;;;;8.34;63.69;98714.59;5093129;28;20184;-57
2021/12/08 11:02:43;;;;;;;14.97;11.43;;;;;;;8.42;64.20;98716.41;5093460;28;20200;-57
2021/12/08 11:05:32;;;;;;;16.70;11.90;;;;;;;8.37;64.22;98715.50;5092911;28;20198;-57
2021/12/08 11:08:02;;;;;;;16.67;10.93;;;;;;;8.32;63.70;98717.16;5092872;28;20282;-57
2021/12/08 11:10:29;;;;;;;15.50;11.10;;;;;;;8.27;63.61;98721.31;5092687;28;20209;-57
2021/12/08 11:12:59;;;;;;;15.50;11.50;;;;;;;8.27;64.33;98737.53;5092549;28;20295;-57
2021/12/08 11:15:29;;;;;;;14.63;11.60;;;;;;;8.32;63.91;98728.22;5092517;28;20283;-56
2021/12/08 11:18:09;;;;;;;16.30;12.23;;;;;;;8.35;64.18;98719.72;5092786;28;20219;-56
2021/12/08 11:20:45;;;;;;;20.70;13.40;;;;;;;8.46;63.97;98722.44;5092592;28;20564;-56
2021/12/08 11:23:15;;;;;;;15.00;11.43;;;;;;;8.44;63.21;98708.72;5092465;28;20697;-57
2021/12/08 11:25:45;;;;;;;18.70;11.53;;;;;;;8.30;63.16;98709.44;5091485;28;20217;-56
2021/12/08 11:28:24;;;;;;;14.87;11.10;;;;;;;8.38;64.04;98718.91;5092578;28;20235;-57
2021/12/08 11:30:54;;;;;;;16.97;12.57;;;;;;;8.46;63.66;98719.88;5092031;28;20389;-56
2021/12/08 11:33:24;;;;;;;15.40;11.77;;;;;;;8.54;63.93;98721.66;5092405;28;20537;-57
2021/12/08 11:36:08;;;;;;;16.67;11.87;;;;;;;8.51;63.72;98711.41;5092495;28;20201;-56
2021/12/08 11:38:35;;;;;;;15.37;11.93;;;;;;;8.43;63.60;98714.72;5092062;28;20284;-57
2021/12/08 11:41:08;;;;;;;14.80;11.67;;;;;;;8.53;64.04;98725.06;5091865;28;20189;-60
2021/12/08 11:43:35;;;;;;;18.13;12.33;;;;;;;8.44;63.79;98730.06;5092049;28;20197;-60
2021/12/08 11:46:17;;;;;;;13.80;10.33;;;;;;;8.49;63.07;98718.19;5092063;28;20201;-59
2021/12/08 11:49:03;;;;;;;15.00;11.67;;;;;;;8.52;63.68;98728.47;5092094;28;20276;-59
2021/12/08 11:51:32;;;;;;;16.57;12.60;;;;;;;8.57;63.50;98726.81;5091915;28;20269;-59
2021/12/08 11:54:00;;;;;;;15.33;12.00;;;;;;;8.51;63.59;98718.22;5091955;28;20282;-59
2021/12/08 11:56:36;;;;;;;16.43;11.87;;;;;;;8.52;63.79;98718.22;5091808;28;20195;-59
2021/12/08 11:59:06;;;;;;;15.00;12.07;;;;;;;8.46;63.58;98715.59;5091745;28;20190;-59
2021/12/08 12:01:33;;;;;;;17.70;12.27;;;;;;;8.45;63.90;98711.31;5091918;28;20236;-59
2021/12/08 12:04:01;;;;;;;16.87;11.23;;;;;;;8.42;64.14;98708.72;5092098;28;20245;-60
2021/12/08 12:06:29;;;;;;;16.70;11.57;;;;;;;8.41;63.78;98724.06;5091343;28;20948;-60
2021/12/08 12:08:59;;;;;;;15.00;11.27;;;;;;;8.46;64.44;98740.34;5091642;28;20459;-59
2021/12/08 12:11:28;;;;;;;15.37;11.60;;;;;;;8.40;63.84;98722.34;5091187;28;20199;-59
2021/12/08 12:13:55;;;;;;;14.67;11.60;;;;;;;8.39;64.14;98710.38;5091492;28;20282;-60
2021/12/08 12:16:23;;;;;;;13.97;11.23;;;;;;;8.30;64.27;98703.44;5091586;28;20716;-60
2021/12/08 12:18:53;;;;;;;16.97;11.67;;;;;;;8.44;64.23;98724.94;5091313;28;20194;-59
2021/12/08 12:21:30;;;;;;;17.43;11.83;;;;;;;8.43;64.04;98728.38;5091752;28;20180;-60
2021/12/08 12:24:15;;;;;;;16.53;13.30;;;;;;;8.52;64.29;98725.03;5091703;28;20199;-61
2021/12/08 12:26:53;;;;;;;15.93;11.70;;;;;;;8.57;64.30;98720.88;5091209;28;20200;-60
2021/12/08 12:29:36;;;;;;;15.57;11.50;;;;;;;8.08;64.19;98652.81;5090917;28;20215;-58